LTFJ/SAW METAR and TAF weather

Enter ICAO airport designator
Station Type Date Time Source
LTFJ METAR 2019/04/19 08:50 UTC NOAA

LTFJ 190850Z 01008KT 340V040 9999 FEW013 BKN030 09/02 Q1024 NOSIG


Station Type Date Time Source
LTFJ Decoded METAR 2019/04/19 08:50 UTC NOAA

Istanbul / Sabiha Gokcen, Turkey (LTFJ) 40-53-55N 029-18-33E
Apr 19, 2019 - 04:50 AM EDT / 2019.04.19 0850 UTC
Wind: from the N (010 degrees) at 9 MPH (8 KT) (direction variable):0
Visibility: greater than 7 mile(s):0
Sky conditions: mostly cloudy
Temperature: 48 F (9 C)
Dew Point: 35 F (2 C)
Relative Humidity: 61%
Pressure (altimeter): 30.24 in. Hg (1024 hPa)
ob: LTFJ 190850Z 01008KT 340V040 9999 FEW013 BKN030 09/02 Q1024 NOSIG
cycle: 9

Station Type Date Time Source
LTFJ TAF 2019/04/19 06:03 UTC NOAA

TAF LTFJ 190440Z 1906/2006 02013KT 9999 SCT010 BKN030
TEMPO 1906/1909 -SHRA
BECMG 1911/1913 CAVOK
BECMG 1918/1921 SCT030 BKN080
TEMPO 2000/2004 -SHRA SCT010 BKN030

Example: see airport list